createdAt,value
2018-04-17T00:01:09.010Z,28.47
2018-04-17T00:03:36.459Z,24.87
2018-04-17T00:06:03.951Z,31.50
2018-04-17T00:08:31.399Z,24.87
2018-04-17T00:10:58.871Z,27.73
2018-04-17T00:13:26.322Z,18.27
2018-04-17T00:15:53.795Z,25.73
2018-04-17T00:18:21.235Z,16.63
2018-04-17T00:20:48.712Z,18.60
2018-04-17T00:23:16.162Z,27.27
2018-04-17T00:25:43.691Z,14.20
2018-04-17T00:28:11.136Z,26.07
2018-04-17T00:30:38.616Z,21.70
2018-04-17T00:33:06.065Z,20.63
2018-04-17T00:35:33.620Z,28.23
2018-04-17T00:38:01.075Z,24.80
2018-04-17T00:40:28.543Z,29.87
2018-04-17T00:42:57.009Z,17.03
2018-04-17T00:45:24.571Z,19.47
2018-04-17T00:47:52.024Z,21.53
2018-04-17T00:50:19.594Z,30.13
2018-04-17T00:52:47.031Z,28.67
2018-04-17T00:55:14.503Z,28.33
2018-04-17T00:57:41.947Z,24.77
2018-04-17T01:00:09.415Z,25.63
2018-04-17T01:02:36.862Z,25.80
2018-04-17T01:05:05.257Z,28.43
2018-04-17T01:07:32.714Z,31.07
2018-04-17T01:10:00.185Z,15.20
2018-04-17T01:12:27.632Z,24.53
2018-04-17T01:14:55.104Z,19.37
2018-04-17T01:17:22.551Z,22.60
2018-04-17T01:19:50.988Z,17.90
2018-04-17T01:22:18.527Z,25.85
2018-04-17T01:24:47.954Z,25.27
2018-04-17T01:27:15.439Z,26.20
2018-04-17T01:29:42.896Z,30.02
2018-04-17T01:32:10.376Z,18.02
2018-04-17T01:34:37.915Z,28.27
2018-04-17T01:37:05.464Z,18.57
2018-04-17T01:39:32.919Z,25.80
2018-04-17T01:42:00.407Z,21.45
2018-04-17T01:44:27.854Z,17.97
2018-04-17T01:46:55.328Z,25.13
2018-04-17T01:49:23.735Z,25.87
2018-04-17T01:51:51.236Z,25.40
2018-04-17T01:54:18.680Z,22.83
2018-04-17T01:56:47.173Z,29.33
2018-04-17T01:59:14.622Z,27.40
2018-04-17T02:01:42.139Z,26.93
2018-04-17T02:04:09.588Z,27.67
2018-04-17T02:06:37.064Z,21.17
2018-04-17T02:09:08.234Z,38.20
2018-04-17T02:11:35.688Z,34.73
2018-04-17T02:14:04.187Z,26.77
2018-04-17T02:16:31.640Z,31.37
2018-04-17T02:18:59.115Z,26.23
2018-04-17T02:21:26.645Z,22.62
2018-04-17T02:23:54.128Z,26.90
2018-04-17T02:26:21.659Z,24.37
2018-04-17T02:28:49.147Z,35.75
2018-04-17T02:31:16.679Z,28.85
2018-04-17T02:33:44.248Z,33.80
2018-04-17T02:36:11.809Z,28.77
2018-04-17T02:38:39.293Z,25.03
2018-04-17T02:41:06.745Z,27.97
2018-04-17T02:43:35.205Z,35.83
2018-04-17T02:46:02.760Z,30.65
2018-04-17T02:48:30.325Z,27.42
2018-04-17T02:50:57.784Z,26.87
2018-04-17T02:53:25.243Z,38.53
2018-04-17T02:55:52.722Z,35.10
2018-04-17T02:58:20.246Z,28.35
2018-04-17T03:00:47.731Z,26.80
2018-04-17T03:03:15.191Z,30.60
2018-04-17T03:05:42.682Z,28.75
2018-04-17T03:08:10.176Z,34.23
2018-04-17T03:10:37.675Z,22.80
2018-04-17T03:13:05.141Z,37.20
2018-04-17T03:15:32.627Z,25.33
2018-04-17T03:18:00.091Z,36.93
2018-04-17T03:20:27.580Z,32.03
2018-04-17T03:22:55.050Z,31.15
2018-04-17T03:25:22.508Z,40.25
2018-04-17T03:27:50.032Z,34.27
2018-04-17T03:30:17.489Z,27.80
2018-04-17T03:32:44.959Z,27.67
2018-04-17T03:35:12.420Z,35.33
2018-04-17T03:37:39.895Z,32.60
2018-04-17T03:40:07.355Z,32.60
2018-04-17T03:42:34.851Z,32.38
2018-04-17T03:45:02.355Z,23.48
2018-04-17T03:47:30.065Z,32.13
2018-04-17T03:49:57.527Z,42.35
2018-04-17T03:52:25.023Z,33.08
2018-04-17T03:54:53.451Z,34.97
2018-04-17T03:57:21.691Z,40.67
2018-04-17T03:59:49.157Z,28.87
2018-04-17T04:02:16.875Z,32.55
2018-04-17T04:04:44.335Z,40.78
2018-04-17T04:07:11.794Z,38.58
2018-04-17T04:09:39.274Z,37.88
2018-04-17T04:12:06.727Z,33.22
2018-04-17T04:14:34.264Z,30.05
2018-04-17T04:17:13.497Z,39.83
2018-04-17T04:19:52.837Z,31.17
2018-04-17T04:22:32.085Z,45.10
2018-04-17T04:25:16.269Z,36.03
2018-04-17T04:27:45.982Z,39.08
2018-04-17T04:30:13.446Z,34.45
2018-04-17T04:32:40.915Z,40.20
2018-04-17T04:35:08.500Z,43.90
2018-04-17T04:37:35.959Z,37.13
2018-04-17T04:40:03.462Z,44.33
2018-04-17T04:42:30.923Z,36.17
2018-04-17T04:44:58.411Z,50.05
2018-04-17T04:47:25.876Z,40.88
2018-04-17T04:49:53.373Z,42.13
2018-04-17T04:52:20.907Z,40.78
2018-04-17T04:54:48.399Z,45.42
2018-04-17T04:57:15.860Z,46.85
2018-04-17T04:59:43.355Z,43.87
2018-04-17T05:02:10.830Z,45.10
2018-04-17T05:04:38.334Z,44.85
2018-04-17T05:07:05.795Z,43.30
2018-04-17T05:09:33.259Z,43.53
2018-04-17T05:12:00.736Z,44.53
2018-04-17T05:14:28.191Z,38.63
2018-04-17T05:16:55.772Z,42.87
2018-04-17T05:19:23.235Z,58.03
2018-04-17T05:21:50.712Z,48.13
2018-04-17T05:24:18.171Z,56.43
2018-04-17T05:26:45.656Z,38.53
2018-04-17T05:29:13.106Z,58.77
2018-04-17T05:31:40.623Z,43.20
2018-04-17T05:34:08.079Z,40.90
2018-04-17T05:36:35.564Z,37.50
2018-04-17T05:39:03.018Z,45.37
2018-04-17T05:41:30.491Z,58.67
2018-04-17T05:43:57.942Z,52.00
2018-04-17T05:46:25.418Z,39.30
2018-04-17T05:48:52.940Z,43.93
2018-04-17T05:51:20.436Z,43.03
2018-04-17T05:53:47.960Z,43.53
2018-04-17T05:56:15.464Z,47.30
2018-04-17T05:58:42.947Z,42.77
2018-04-17T06:01:10.407Z,58.77
2018-04-17T06:03:37.896Z,41.33
2018-04-17T06:06:05.356Z,37.47
2018-04-17T06:08:33.928Z,33.70
2018-04-17T06:11:01.487Z,45.50
2018-04-17T06:13:28.972Z,36.07
2018-04-17T06:15:56.492Z,41.10
2018-04-17T06:18:24.882Z,30.67
2018-04-17T06:20:52.347Z,43.07
2018-04-17T06:23:19.917Z,42.13
2018-04-17T06:25:47.352Z,49.50
2018-04-17T06:28:14.904Z,42.27
2018-04-17T06:30:42.467Z,35.37
2018-04-17T06:33:09.959Z,31.93
2018-04-17T06:35:37.480Z,38.13
2018-04-17T06:38:04.999Z,42.80
2018-04-17T06:40:33.360Z,41.20
2018-04-17T06:43:00.806Z,30.60
2018-04-17T06:45:28.295Z,32.00
2018-04-17T06:47:55.744Z,30.40
2018-04-17T06:50:23.236Z,42.57
2018-04-17T06:52:50.747Z,44.20
2018-04-17T06:55:18.195Z,40.70
2018-04-17T06:57:45.660Z,41.10
2018-04-17T07:00:13.156Z,41.27
2018-04-17T07:02:40.635Z,38.83
2018-04-17T07:05:08.187Z,36.83
2018-04-17T07:07:35.635Z,43.67
2018-04-17T07:10:04.114Z,30.37
2018-04-17T07:12:31.571Z,38.57
2018-04-17T07:14:59.052Z,26.10
2018-04-17T07:17:27.487Z,32.93
2018-04-17T07:19:55.083Z,27.97
2018-04-17T07:22:22.644Z,28.77
2018-04-17T07:24:50.132Z,50.10
2018-04-17T07:27:17.658Z,32.33
2018-04-17T07:29:45.154Z,28.30
2018-04-17T07:32:12.612Z,30.73
2018-04-17T07:34:40.113Z,36.50
2018-04-17T07:37:07.575Z,38.67
2018-04-17T07:39:35.065Z,35.40
2018-04-17T07:42:02.523Z,34.57
2018-04-17T07:44:30.019Z,38.23
2018-04-17T07:47:09.401Z,24.47
2018-04-17T07:49:36.882Z,34.67
2018-04-17T07:52:04.335Z,29.00
2018-04-17T07:54:31.840Z,29.73
2018-04-17T07:56:59.319Z,28.43
2018-04-17T07:59:26.775Z,31.90
2018-04-17T08:01:54.260Z,31.10
2018-04-17T08:04:21.730Z,32.30
2018-04-17T08:06:50.275Z,33.17
2018-04-17T08:09:17.731Z,38.80
2018-04-17T08:11:45.292Z,32.30
2018-04-17T08:14:12.756Z,25.03
2018-04-17T08:16:40.249Z,31.17
2018-04-17T08:19:07.708Z,27.70
2018-04-17T08:21:37.165Z,19.90
2018-04-17T08:24:04.629Z,30.97
2018-04-17T08:26:32.112Z,17.50
2018-04-17T08:28:59.568Z,24.73
2018-04-17T08:31:27.059Z,25.67
2018-04-17T08:33:54.515Z,19.03
2018-04-17T08:36:21.997Z,19.77
2018-04-17T08:38:49.467Z,18.43
2018-04-17T08:41:16.949Z,25.53
2018-04-17T08:43:44.471Z,18.23
2018-04-17T08:46:11.959Z,21.20
2018-04-17T08:48:40.388Z,25.87
2018-04-17T08:51:07.872Z,22.93
2018-04-17T08:53:35.320Z,29.73
2018-04-17T08:56:02.802Z,22.30
2018-04-17T08:58:30.256Z,17.17
2018-04-17T09:00:57.799Z,21.40
2018-04-17T09:03:25.258Z,24.53
2018-04-17T09:05:52.760Z,28.23
2018-04-17T09:08:20.220Z,18.57
2018-04-17T09:10:47.727Z,13.67
2018-04-17T09:13:16.216Z,21.47
2018-04-17T09:15:43.667Z,13.70
2018-04-17T09:18:11.147Z,14.20
2018-04-17T09:20:38.615Z,20.67
2018-04-17T09:23:06.099Z,18.50
2018-04-17T09:25:33.551Z,19.83
2018-04-17T09:28:01.036Z,20.10
2018-04-17T09:30:28.495Z,14.37
2018-04-17T09:32:55.979Z,18.80
2018-04-17T09:35:24.441Z,21.60
2018-04-17T09:37:52.016Z,19.50
2018-04-17T09:40:19.560Z,16.93
2018-04-17T09:42:47.121Z,17.43
2018-04-17T09:45:14.566Z,13.53
2018-04-17T09:47:42.048Z,17.33
2018-04-17T09:50:09.511Z,13.70
2018-04-17T09:52:36.988Z,19.43
2018-04-17T09:55:04.444Z,11.47
2018-04-17T09:57:31.978Z,16.27
2018-04-17T09:59:59.416Z,16.67
2018-04-17T10:02:26.917Z,14.67
2018-04-17T10:04:54.375Z,13.17
2018-04-17T10:07:21.833Z,15.97
2018-04-17T10:09:49.312Z,11.17
2018-04-17T10:12:16.769Z,14.30
2018-04-17T10:14:44.260Z,15.60
2018-04-17T10:17:11.733Z,10.20
2018-04-17T10:19:39.284Z,10.70
2018-04-17T10:22:06.848Z,14.73
2018-04-17T10:24:34.340Z,10.87
2018-04-17T10:27:01.804Z,12.40
2018-04-17T10:29:29.288Z,9.87
2018-04-17T10:31:56.744Z,11.87
2018-04-17T10:34:24.230Z,13.40
2018-04-17T10:36:51.685Z,10.33
2018-04-17T10:39:19.171Z,19.20
2018-04-17T10:41:46.695Z,15.57
2018-04-17T10:44:14.190Z,14.73
2018-04-17T10:46:41.652Z,10.83
2018-04-17T10:49:09.144Z,13.63
2018-04-17T10:51:36.607Z,11.40
2018-04-17T10:54:04.448Z,11.23
2018-04-17T10:56:31.912Z,13.60
2018-04-17T10:58:59.372Z,12.73
2018-04-17T11:01:26.855Z,13.57
2018-04-17T11:03:54.305Z,15.57
2018-04-17T11:06:21.808Z,15.53
2018-04-17T11:08:49.339Z,13.40
2018-04-17T11:11:16.816Z,9.57
2018-04-17T11:13:44.296Z,10.83
2018-04-17T11:16:11.819Z,12.73
2018-04-17T11:18:39.270Z,12.90
2018-04-17T11:21:06.761Z,9.93
2018-04-17T11:23:34.276Z,13.20
2018-04-17T11:26:01.784Z,14.77
2018-04-17T11:28:29.412Z,9.60
2018-04-17T11:30:56.878Z,9.40
2018-04-17T11:33:25.299Z,11.20
2018-04-17T11:35:52.789Z,9.63
2018-04-17T11:38:20.234Z,8.93
2018-04-17T11:40:47.718Z,7.30
2018-04-17T11:43:15.179Z,9.47
2018-04-17T11:45:43.606Z,20.00
2018-04-17T11:48:11.078Z,10.23
2018-04-17T11:50:38.532Z,7.20
2018-04-17T11:53:06.011Z,12.70
2018-04-17T11:55:33.457Z,13.83
2018-04-17T11:58:00.931Z,6.70
2018-04-17T12:00:28.380Z,9.60
2018-04-17T12:02:56.852Z,11.63
2018-04-17T12:05:24.312Z,9.77
2018-04-17T12:07:51.791Z,5.77
2018-04-17T12:10:19.237Z,8.77
2018-04-17T12:12:47.616Z,6.93
2018-04-17T12:15:15.064Z,7.00
2018-04-17T12:17:42.552Z,10.10
2018-04-17T12:20:10.963Z,7.43
2018-04-17T12:22:38.443Z,6.40
2018-04-17T12:25:06.011Z,9.47
2018-04-17T12:27:33.450Z,8.18
2018-04-17T12:30:01.038Z,8.20
2018-04-17T12:32:28.488Z,11.30
2018-04-17T12:34:56.040Z,12.33
2018-04-17T12:37:23.484Z,5.87
2018-04-17T12:39:50.969Z,5.33
2018-04-17T12:42:18.438Z,14.70
2018-04-17T12:44:45.916Z,7.00
2018-04-17T12:47:13.358Z,7.03
2018-04-17T12:49:40.853Z,10.30
2018-04-17T12:52:08.344Z,4.50
2018-04-17T12:54:35.905Z,9.40
2018-04-17T12:57:03.360Z,4.27
2018-04-17T12:59:31.840Z,5.00
2018-04-17T13:01:59.279Z,7.70
2018-04-17T13:04:26.747Z,8.13
2018-04-17T13:06:54.198Z,6.90
2018-04-17T13:09:21.681Z,11.13
2018-04-17T13:11:49.128Z,7.63
2018-04-17T13:14:16.616Z,7.20
2018-04-17T13:16:44.067Z,12.30
2018-04-17T13:19:11.572Z,8.90
2018-04-17T13:21:39.016Z,11.90
2018-04-17T13:24:06.472Z,7.93
2018-04-17T13:26:33.978Z,5.63
2018-04-17T13:29:01.418Z,9.03
2018-04-17T13:31:28.893Z,8.83
2018-04-17T13:33:56.354Z,5.93
2018-04-17T13:36:23.891Z,8.73
2018-04-17T13:38:51.299Z,10.97
2018-04-17T13:41:18.920Z,15.10
2018-04-17T13:43:46.375Z,6.90
2018-04-17T13:46:13.888Z,11.93
2018-04-17T13:48:41.346Z,5.00
2018-04-17T13:51:08.823Z,6.60
2018-04-17T13:53:36.283Z,5.50
2018-04-17T13:56:03.755Z,9.80
2018-04-17T13:58:32.107Z,10.40
2018-04-17T14:00:59.573Z,7.73
2018-04-17T14:03:27.931Z,6.40
2018-04-17T14:05:55.421Z,11.20
2018-04-17T14:08:22.886Z,9.07
2018-04-17T14:10:50.358Z,6.87
2018-04-17T14:13:17.808Z,5.63
2018-04-17T14:15:45.279Z,9.40
2018-04-17T14:18:12.816Z,13.47
2018-04-17T14:20:40.287Z,7.60
2018-04-17T14:23:07.746Z,10.43
2018-04-17T14:25:36.333Z,9.77
2018-04-17T14:28:03.795Z,12.00
2018-04-17T14:30:31.276Z,10.40
2018-04-17T14:32:58.733Z,10.80
2018-04-17T14:35:26.217Z,14.57
2018-04-17T14:37:54.683Z,12.90
2018-04-17T14:40:22.172Z,7.67
2018-04-17T14:42:49.620Z,9.73
2018-04-17T14:45:17.107Z,8.00
2018-04-17T14:47:44.563Z,11.13
2018-04-17T14:50:12.007Z,8.53
2018-04-17T14:52:39.564Z,11.03
2018-04-17T14:55:07.015Z,12.60
2018-04-17T14:57:34.503Z,12.07
2018-04-17T15:00:01.949Z,9.73
2018-04-17T15:02:30.331Z,11.20
2018-04-17T15:04:57.781Z,9.70
2018-04-17T15:07:25.268Z,10.33
2018-04-17T15:09:52.888Z,12.37
2018-04-17T15:12:20.376Z,11.00
2018-04-17T15:14:47.823Z,11.07
2018-04-17T15:17:16.284Z,11.23
2018-04-17T15:19:44.765Z,13.17
2018-04-17T15:22:12.243Z,11.53
2018-04-17T15:24:39.696Z,11.77
2018-04-17T15:27:07.173Z,8.00
2018-04-17T15:29:34.632Z,14.93
2018-04-17T15:32:02.108Z,18.10
2018-04-17T15:34:29.556Z,14.63
2018-04-17T15:36:57.033Z,16.17
2018-04-17T15:39:24.528Z,9.73
2018-04-17T15:41:59.054Z,10.40
2018-04-17T15:44:34.633Z,10.20
2018-04-17T15:47:02.120Z,10.87
2018-04-17T15:49:29.580Z,9.63
2018-04-17T15:51:57.052Z,8.40
2018-04-17T15:54:24.498Z,12.57
2018-04-17T15:56:54.232Z,12.60
2018-04-17T15:59:22.677Z,9.70
2018-04-17T16:01:50.118Z,15.60
2018-04-17T16:04:17.671Z,13.23
2018-04-17T16:06:45.106Z,11.10
2018-04-17T16:09:12.648Z,16.57
2018-04-17T16:11:40.044Z,18.50
2018-04-17T16:14:07.539Z,8.80
2018-04-17T16:16:34.992Z,20.10
2018-04-17T16:19:02.483Z,14.10
2018-04-17T16:21:29.956Z,12.80
2018-04-17T16:23:58.417Z,15.27
2018-04-17T16:26:25.951Z,10.53
2018-04-17T16:28:53.445Z,8.60
2018-04-17T16:31:21.872Z,20.03
2018-04-17T16:33:50.945Z,13.70
2018-04-17T16:36:18.423Z,11.20
2018-04-17T16:38:45.916Z,8.70
2018-04-17T16:41:13.379Z,12.60
2018-04-17T16:43:40.858Z,14.87
2018-04-17T16:46:08.307Z,17.57
2018-04-17T16:48:36.756Z,12.33
2018-04-17T16:51:05.579Z,16.70
2018-04-17T16:53:33.512Z,14.37
2018-04-17T16:56:00.998Z,13.63
2018-04-17T16:58:28.488Z,12.40
2018-04-17T17:00:55.949Z,12.93
2018-04-17T17:03:24.466Z,11.40
2018-04-17T17:05:51.918Z,12.50
2018-04-17T17:08:20.339Z,13.93
2018-04-17T17:10:48.770Z,11.30
2018-04-17T17:13:16.235Z,13.50
2018-04-17T17:15:43.724Z,9.83
2018-04-17T17:18:11.175Z,14.00
2018-04-17T17:20:38.656Z,14.20
2018-04-17T17:23:06.104Z,15.63
2018-04-17T17:25:33.584Z,13.27
2018-04-17T17:28:03.819Z,10.07
2018-04-17T17:30:31.322Z,15.33
2018-04-17T17:32:58.776Z,10.73
2018-04-17T17:35:26.255Z,10.53
2018-04-17T17:37:53.732Z,14.50
2018-04-17T17:40:21.234Z,22.53
2018-04-17T17:42:48.684Z,15.90
2018-04-17T17:45:16.162Z,10.50
2018-04-17T17:47:44.600Z,14.20
2018-04-17T17:50:12.081Z,11.17
2018-04-17T17:52:39.615Z,14.30
2018-04-17T17:55:07.087Z,10.97
2018-04-17T17:57:34.578Z,14.23
2018-04-17T18:00:02.082Z,13.13
2018-04-17T18:02:29.531Z,12.70
2018-04-17T18:04:57.017Z,17.00
2018-04-17T18:07:24.608Z,15.50
2018-04-17T18:09:52.087Z,18.10
2018-04-17T18:12:19.613Z,13.03
2018-04-17T18:14:47.069Z,14.63
2018-04-17T18:17:14.528Z,16.70
2018-04-17T18:19:42.001Z,21.97
2018-04-17T18:22:09.564Z,14.63
2018-04-17T18:24:37.012Z,23.33
2018-04-17T18:27:04.498Z,13.03
2018-04-17T18:29:31.947Z,18.23
2018-04-17T18:31:59.501Z,16.63
2018-04-17T18:34:26.952Z,13.60
2018-04-17T18:36:54.503Z,17.77
2018-04-17T18:39:21.964Z,15.93
2018-04-17T18:41:49.459Z,15.00
2018-04-17T18:44:16.987Z,20.70
2018-04-17T18:46:44.468Z,13.00
2018-04-17T18:49:11.919Z,22.83
2018-04-17T18:51:39.451Z,17.93
2018-04-17T18:54:06.916Z,22.50
2018-04-17T18:56:34.576Z,12.40
2018-04-17T18:59:02.028Z,20.63
2018-04-17T19:01:29.530Z,20.10
2018-04-17T19:03:56.984Z,17.53
2018-04-17T19:09:14.605Z,12.93
2018-04-17T19:11:42.137Z,16.60
2018-04-17T19:14:09.572Z,16.70
2018-04-17T19:16:37.041Z,12.07
2018-04-17T19:19:04.478Z,10.73
2018-04-17T19:21:31.963Z,19.60
2018-04-17T19:23:59.459Z,20.07
2018-04-17T19:26:26.977Z,16.73
2018-04-17T19:28:54.421Z,11.77
2018-04-17T19:31:22.849Z,24.00
2018-04-17T19:33:50.305Z,21.97
2018-04-17T19:36:17.792Z,19.20
2018-04-17T19:38:45.244Z,23.13
2018-04-17T19:41:12.785Z,15.93
2018-04-17T19:43:40.257Z,22.10
2018-04-17T19:46:07.748Z,22.43
2018-04-17T19:48:35.204Z,18.00
2018-04-17T19:51:02.684Z,9.87
2018-04-17T19:53:30.137Z,16.73
2018-04-17T19:55:57.619Z,15.67
2018-04-17T19:58:25.100Z,13.07
2018-04-17T20:00:52.560Z,14.67
2018-04-17T20:03:22.050Z,19.57
2018-04-17T20:05:49.507Z,17.93
2018-04-17T20:08:17.976Z,13.40
2018-04-17T20:10:45.448Z,10.03
2018-04-17T20:13:12.940Z,14.70
2018-04-17T20:15:40.388Z,22.60
2018-04-17T20:18:07.882Z,16.33
2018-04-17T20:20:35.380Z,15.73
2018-04-17T20:23:03.929Z,12.17
2018-04-17T20:25:31.409Z,20.43
2018-04-17T20:27:58.900Z,16.07
2018-04-17T20:30:27.371Z,15.73
2018-04-17T20:32:54.817Z,20.43
2018-04-17T20:35:22.311Z,15.40
2018-04-17T20:37:49.760Z,9.87
2018-04-17T20:40:17.248Z,22.83
2018-04-17T20:42:44.732Z,21.97
2018-04-17T20:45:12.252Z,21.23
2018-04-17T20:47:39.711Z,17.50
2018-04-17T20:50:07.296Z,14.80
2018-04-17T20:52:34.751Z,25.30
2018-04-17T20:55:02.239Z,17.37
2018-04-17T20:57:29.699Z,22.47
2018-04-17T20:59:57.408Z,21.13
2018-04-17T21:02:24.871Z,21.60
2018-04-17T21:04:52.359Z,14.77
2018-04-17T21:07:20.067Z,18.87
2018-04-17T21:09:47.702Z,19.47
2018-04-17T21:12:15.180Z,26.37
2018-04-17T21:14:42.647Z,20.37
2018-04-17T21:17:10.143Z,16.53
2018-04-17T21:19:37.783Z,14.63
2018-04-17T21:22:05.264Z,17.83
2018-04-17T21:24:32.716Z,12.20
2018-04-17T21:27:00.213Z,19.33
2018-04-17T21:29:27.868Z,36.77
2018-04-17T21:31:55.352Z,16.23
2018-04-17T21:34:22.816Z,23.20
2018-04-17T21:36:50.289Z,14.47
2018-04-17T21:39:17.859Z,17.40
2018-04-17T21:41:45.312Z,18.13
2018-04-17T21:44:12.792Z,23.98
2018-04-17T21:46:40.301Z,17.87
2018-04-17T21:49:08.014Z,16.07
2018-04-17T21:51:35.572Z,25.47
2018-04-17T21:54:03.080Z,17.43
2018-04-17T21:56:30.599Z,20.53
2018-04-17T21:58:58.108Z,15.13
2018-04-17T22:01:29.627Z,26.43
2018-04-17T22:03:57.112Z,15.13
2018-04-17T22:06:24.560Z,16.30
2018-04-17T22:08:52.055Z,15.63
2018-04-17T22:11:19.508Z,15.20
2018-04-17T22:13:46.963Z,18.37
2018-04-17T22:16:14.445Z,20.13
2018-04-17T22:18:41.912Z,13.80
2018-04-17T22:21:09.399Z,22.30
2018-04-17T22:23:36.849Z,19.47
2018-04-17T22:26:04.333Z,17.73
2018-04-17T22:28:31.811Z,28.33
2018-04-17T22:30:59.295Z,20.83
2018-04-17T22:33:26.774Z,28.83
2018-04-17T22:35:54.287Z,13.67
2018-04-17T22:38:21.740Z,18.83
2018-04-17T22:40:49.224Z,16.90
2018-04-17T22:43:16.671Z,29.37
2018-04-17T22:45:44.133Z,21.17
2018-04-17T22:48:11.579Z,16.83
2018-04-17T22:50:39.049Z,20.57
2018-04-17T22:53:06.482Z,17.67
2018-04-17T22:55:34.936Z,16.43
2018-04-17T22:58:02.399Z,14.73
2018-04-17T23:00:29.877Z,19.53
2018-04-17T23:02:57.455Z,16.30
2018-04-17T23:05:24.944Z,16.33
2018-04-17T23:07:52.440Z,18.13
2018-04-17T23:10:19.925Z,17.00
2018-04-17T23:12:47.409Z,18.77
2018-04-17T23:15:14.868Z,12.13
2018-04-17T23:17:42.391Z,23.17
2018-04-17T23:20:09.852Z,22.67
2018-04-17T23:22:37.342Z,20.70
2018-04-17T23:25:04.867Z,16.37
2018-04-17T23:27:32.359Z,19.27
2018-04-17T23:29:59.816Z,20.13
2018-04-17T23:32:27.340Z,13.60
2018-04-17T23:34:54.895Z,12.50
2018-04-17T23:37:22.383Z,17.37
2018-04-17T23:39:49.845Z,21.83
2018-04-17T23:42:17.300Z,21.13
2018-04-17T23:44:44.779Z,17.60
2018-04-17T23:47:12.227Z,16.67
2018-04-17T23:49:39.717Z,14.20
2018-04-17T23:52:07.178Z,20.80
2018-04-17T23:54:34.717Z,17.23
2018-04-17T23:57:02.164Z,14.17
2018-04-17T23:59:29.648Z,20.80
